Time;durP1;ratioP1;P1;durP2;ratioP2;P2;SDS_P1;SDS_P2;PMS_P1;PMS_P2;Temp;Humidity;BMP_temperature;BMP_pressure;BME280_temperature;BME280_humidity;BME280_pressure;Samples;Min_cycle;Max_cycle;Signal;HPM_P1;HPM_P2
2021/03/09 00:01:54;;;;;;;22.85;15.60;;;4.40;68.10;;;;;;5036834;28;20425;-73
2021/03/09 00:04:19;;;;;;;22.83;14.52;;;4.50;68.50;;;;;;5036465;28;20065;-72
2021/03/09 00:06:45;;;;;;;25.00;14.75;;;4.60;68.50;;;;;;5035742;28;20035;-73
2021/03/09 00:09:11;;;;;;;27.33;15.23;;;4.60;68.80;;;;;;5037006;28;20026;-73
2021/03/09 00:11:36;;;;;;;22.95;14.98;;;4.60;67.20;;;;;;5036655;28;20033;-73
2021/03/09 00:14:02;;;;;;;20.88;14.38;;;4.50;68.40;;;;;;5036542;28;20101;-73
2021/03/09 00:16:28;;;;;;;22.23;14.57;;;4.40;69.10;;;;;;5036711;28;20026;-73
2021/03/09 00:18:53;;;;;;;22.05;13.50;;;4.30;69.70;;;;;;5035596;28;20028;-74
2021/03/09 00:21:19;;;;;;;19.02;12.95;;;4.20;69.80;;;;;;5036544;28;20053;-73
2021/03/09 00:23:45;;;;;;;20.00;12.02;;;4.10;70.30;;;;;;5036517;28;20033;-73
2021/03/09 00:26:10;;;;;;;21.70;13.75;;;4.00;70.40;;;;;;5036599;28;20022;-73
2021/03/09 00:28:36;;;;;;;23.80;13.50;;;4.00;69.90;;;;;;5036505;28;20368;-73
2021/03/09 00:31:02;;;;;;;23.83;12.90;;;4.00;70.00;;;;;;5035391;28;20443;-73
2021/03/09 00:33:28;;;;;;;20.13;13.40;;;4.10;69.30;;;;;;5036406;28;20022;-74
2021/03/09 00:35:54;;;;;;;21.35;12.13;;;4.20;70.10;;;;;;5036447;28;20026;-73
2021/03/09 00:38:20;;;;;;;20.48;13.18;;;4.20;69.20;;;;;;5036680;28;20025;-74
2021/03/09 00:40:45;;;;;;;21.58;13.93;;;4.20;69.10;;;;;;5036639;28;20038;-74
2021/03/09 00:43:11;;;;;;;20.65;14.05;;;4.10;69.90;;;;;;5036343;28;20373;-73
2021/03/09 00:45:36;;;;;;;19.33;12.65;;;4.00;70.20;;;;;;5036286;28;20572;-73
2021/03/09 00:48:02;;;;;;;23.48;14.10;;;3.90;71.90;;;;;;5036592;28;20068;-73
2021/03/09 00:50:28;;;;;;;24.83;13.68;;;3.70;72.10;;;;;;5036450;28;20032;-73
2021/03/09 00:52:53;;;;;;;19.25;12.75;;;3.60;72.00;;;;;;5035230;28;20021;-74
2021/03/09 00:55:19;;;;;;;21.17;12.90;;;3.60;72.10;;;;;;5035259;28;20026;-73
2021/03/09 00:57:56;;;;;;;15.90;10.60;;;3.80;70.00;;;;;;5036256;28;20029;-73
2021/03/09 01:00:22;;;;;;;18.02;10.43;;;3.90;69.50;;;;;;5035223;28;20062;-73
2021/03/09 01:02:47;;;;;;;17.58;10.18;;;4.10;67.50;;;;;;5036401;28;20360;-73
2021/03/09 01:05:13;;;;;;;18.73;12.05;;;4.30;68.00;;;;;;5036157;28;20048;-73
2021/03/09 01:07:39;;;;;;;18.00;10.80;;;4.50;66.70;;;;;;5036405;28;20100;-73
2021/03/09 01:10:05;;;;;;;19.08;11.48;;;4.60;66.40;;;;;;5036101;28;20333;-74
2021/03/09 01:12:30;;;;;;;20.63;12.02;;;4.70;66.30;;;;;;5036129;28;20474;-73
2021/03/09 01:14:56;;;;;;;17.52;11.90;;;4.60;67.30;;;;;;5036185;28;20034;-73
2021/03/09 01:17:22;;;;;;;20.85;12.20;;;4.50;68.80;;;;;;5037259;28;20040;-73
2021/03/09 01:19:47;;;;;;;15.20;11.23;;;4.40;68.90;;;;;;5039578;28;20429;-73
2021/03/09 01:22:13;;;;;;;18.55;11.43;;;4.20;69.50;;;;;;5039977;28;20022;-73
2021/03/09 01:24:40;;;;;;;16.15;10.95;;;4.10;69.60;;;;;;5039596;28;20030;-74
2021/03/09 01:27:06;;;;;;;20.05;11.63;;;4.00;69.00;;;;;;5039752;28;20079;-73
2021/03/09 01:29:31;;;;;;;19.05;12.23;;;4.10;67.40;;;;;;5039565;28;20022;-74
2021/03/09 01:31:57;;;;;;;18.42;11.00;;;4.20;67.60;;;;;;5039407;28;20318;-74
2021/03/09 01:34:23;;;;;;;17.95;11.27;;;4.20;69.10;;;;;;5039408;28;20033;-73
2021/03/09 01:36:49;;;;;;;17.17;11.13;;;4.10;69.60;;;;;;5039505;28;20370;-73
2021/03/09 01:39:15;;;;;;;14.73;10.63;;;4.00;70.40;;;;;;5039386;28;20053;-74
2021/03/09 01:41:40;;;;;;;19.63;10.82;;;3.70;70.70;;;;;;5039331;28;20445;-73
2021/03/09 01:44:06;;;;;;;18.30;10.45;;;3.60;71.20;;;;;;5039165;28;20036;-74
2021/03/09 01:46:33;;;;;;;15.70;10.75;;;3.60;69.90;;;;;;5038243;28;20030;-74
2021/03/09 01:48:59;;;;;;;20.23;12.13;;;3.70;70.30;;;;;;5039175;28;20124;-74
2021/03/09 01:51:24;;;;;;;17.48;12.18;;;3.70;70.00;;;;;;5039101;28;20104;-74
2021/03/09 01:53:51;;;;;;;21.42;11.20;;;3.70;69.90;;;;;;5039303;28;20025;-73
2021/03/09 01:56:17;;;;;;;18.10;11.73;;;3.70;70.20;;;;;;5039373;28;20024;-73
2021/03/09 01:58:48;;;;;;;20.60;11.75;;;3.70;71.10;;;;;;5038972;28;20349;-74
2021/03/09 02:01:16;;;;;;;18.17;12.02;;;3.70;71.40;;;;;;5039281;28;20029;-74
2021/03/09 02:03:43;;;;;;;16.40;11.07;;;3.50;72.00;;;;;;5038831;28;20049;-73
2021/03/09 02:06:18;;;;;;;20.15;11.63;;;3.50;71.40;;;;;;5039170;28;20035;-73
2021/03/09 02:08:45;;;;;;;18.65;12.52;;;3.40;72.30;;;;;;5039155;28;20321;-73
2021/03/09 02:11:46;;;;;;;18.10;11.90;;;3.30;72.80;;;;;;5038940;28;20109;-73
2021/03/09 02:14:58;;;;;;;18.58;11.43;;;3.20;72.80;;;;;;5038601;28;20038;-73
2021/03/09 02:17:45;;;;;;;20.73;10.68;;;3.10;72.40;;;;;;5038248;28;20083;-73
2021/03/09 02:20:25;;;;;;;;;;;3.20;71.90;;;;;;5039070;28;20349;-74
2021/03/09 02:23:29;;;;;;;17.02;11.25;;;3.10;72.90;;;;;;5038430;28;20221;-73
2021/03/09 02:26:22;;;;;;;14.88;10.80;;;3.10;73.10;;;;;;5038831;28;20030;-73
2021/03/09 02:28:54;;;;;;;15.07;9.75;;;3.10;73.50;;;;;;5038328;28;20414;-73
2021/03/09 02:31:23;;;;;;;15.90;10.80;;;3.10;73.90;;;;;;5038668;28;20083;-73
2021/03/09 02:33:54;;;;;;;15.32;10.30;;;3.10;74.10;;;;;;5038280;28;20029;-74
2021/03/09 02:36:25;;;;;;;17.48;11.23;;;3.10;74.00;;;;;;5038450;28;20025;-74
2021/03/09 02:39:03;;;;;;;16.60;11.23;;;3.00;74.10;;;;;;5038313;28;20030;-74
2021/03/09 02:41:30;;;;;;;18.40;12.02;;;3.00;74.10;;;;;;5038218;28;20029;-74
2021/03/09 02:43:57;;;;;;;18.20;11.93;;;3.00;73.70;;;;;;5038085;28;20027;-73
2021/03/09 02:46:26;;;;;;;19.85;13.20;;;3.00;74.00;;;;;;5038487;28;20036;-73
2021/03/09 02:48:54;;;;;;;20.85;11.68;;;3.00;74.30;;;;;;5038100;28;20079;-74
2021/03/09 02:51:24;;;;;;;22.00;12.07;;;3.00;74.30;;;;;;5036912;28;20029;-73
2021/03/09 02:53:53;;;;;;;18.88;12.73;;;2.90;74.70;;;;;;5037889;28;20409;-74
2021/03/09 02:56:21;;;;;;;18.75;11.57;;;2.90;74.80;;;;;;5037964;28;20025;-73
2021/03/09 02:58:53;;;;;;;17.55;11.63;;;2.80;75.00;;;;;;5037911;28;20087;-73
2021/03/09 03:01:20;;;;;;;23.75;13.52;;;2.80;74.50;;;;;;5038169;28;20029;-74
2021/03/09 03:03:47;;;;;;;20.20;12.60;;;2.80;73.30;;;;;;5037748;28;20333;-74
2021/03/09 03:06:14;;;;;;;21.75;13.70;;;2.90;73.70;;;;;;5037916;28;20032;-74
2021/03/09 03:08:41;;;;;;;22.60;12.93;;;2.90;73.90;;;;;;5037937;28;20048;-74
2021/03/09 03:11:08;;;;;;;22.35;12.82;;;3.00;73.00;;;;;;5037863;28;20029;-74
2021/03/09 03:13:35;;;;;;;21.17;13.02;;;3.20;71.60;;;;;;5037631;28;20055;-73
2021/03/09 03:16:03;;;;;;;20.90;12.20;;;3.40;70.50;;;;;;5037546;28;20030;-73
2021/03/09 03:18:34;;;;;;;19.67;12.73;;;3.50;70.40;;;;;;5037781;28;20030;-73
2021/03/09 03:21:01;;;;;;;21.60;11.90;;;3.70;70.20;;;;;;5037343;28;20049;-73
2021/03/09 03:23:28;;;;;;;23.73;12.88;;;3.80;69.50;;;;;;5037330;28;20034;-73
2021/03/09 03:25:55;;;;;;;20.40;11.90;;;3.80;69.20;;;;;;5037670;28;20029;-74
2021/03/09 03:28:22;;;;;;;21.25;13.25;;;3.80;69.20;;;;;;5037328;28;20033;-73
2021/03/09 03:30:49;;;;;;;18.45;12.13;;;3.80;69.40;;;;;;5037270;28;20025;-73
2021/03/09 03:33:16;;;;;;;19.10;12.77;;;3.80;69.90;;;;;;5037166;28;20056;-73
2021/03/09 03:35:44;;;;;;;19.48;11.48;;;3.70;70.40;;;;;;5037297;28;20018;-73
2021/03/09 03:38:14;;;;;;;21.10;13.25;;;3.60;70.70;;;;;;5037112;28;20414;-73
2021/03/09 03:40:43;;;;;;;18.30;10.90;;;3.50;70.30;;;;;;5036660;28;20018;-73
2021/03/09 03:43:09;;;;;;;22.92;12.90;;;3.40;70.20;;;;;;5037286;28;20025;-73
2021/03/09 03:45:35;;;;;;;24.30;13.55;;;3.30;71.00;;;;;;5037400;28;20030;-73
2021/03/09 03:48:01;;;;;;;25.17;13.18;;;3.30;70.70;;;;;;5037134;28;20034;-73
2021/03/09 03:50:31;;;;;;;21.45;11.23;;;3.20;70.80;;;;;;5036895;28;20034;-73
2021/03/09 03:53:11;;;;;;;21.13;11.85;;;3.20;70.40;;;;;;5037112;28;20025;-73
2021/03/09 03:55:57;;;;;;;21.35;11.75;;;3.30;70.40;;;;;;5037206;28;20041;-73
2021/03/09 03:58:30;;;;;;;21.95;11.73;;;3.20;70.50;;;;;;5037112;28;20017;-73
2021/03/09 04:00:58;;;;;;;19.27;12.55;;;3.20;70.60;;;;;;5036937;28;20055;-73
2021/03/09 04:03:27;;;;;;;18.55;12.55;;;3.20;70.80;;;;;;5037025;28;20036;-73
2021/03/09 04:05:54;;;;;;;20.95;12.18;;;3.20;70.80;;;;;;5036995;28;20143;-73
2021/03/09 04:08:21;;;;;;;18.55;11.70;;;3.20;70.70;;;;;;5036719;28;20307;-74
2021/03/09 04:10:50;;;;;;;21.23;12.75;;;3.20;70.70;;;;;;5036676;28;20404;-73
2021/03/09 04:13:17;;;;;;;20.85;12.13;;;3.30;70.80;;;;;;5036906;28;20060;-74
2021/03/09 04:15:44;;;;;;;19.48;12.05;;;3.30;70.70;;;;;;5037119;28;20025;-74
2021/03/09 04:18:12;;;;;;;18.83;11.77;;;3.30;70.80;;;;;;5036900;28;20041;-73
2021/03/09 04:20:42;;;;;;;19.20;11.60;;;3.30;71.30;;;;;;5036559;28;20057;-74
2021/03/09 04:23:08;;;;;;;18.25;11.68;;;3.20;71.40;;;;;;5036493;28;20037;-74
2021/03/09 04:25:34;;;;;;;20.48;11.50;;;3.00;71.90;;;;;;5035522;28;20116;-73
2021/03/09 04:28:03;;;;;;;18.10;11.77;;;2.90;72.20;;;;;;5036531;28;20028;-74
2021/03/09 04:30:32;;;;;;;23.00;12.77;;;3.00;72.40;;;;;;5036411;28;20036;-74
2021/03/09 04:32:59;;;;;;;19.27;12.30;;;3.00;73.10;;;;;;5036692;28;20291;-73
2021/03/09 04:35:25;;;;;;;18.30;11.48;;;3.00;72.30;;;;;;5036776;28;20033;-74
2021/03/09 04:37:51;;;;;;;19.55;11.55;;;3.10;72.30;;;;;;5036566;28;20018;-74
2021/03/09 04:40:17;;;;;;;18.80;12.50;;;3.20;71.90;;;;;;5035361;28;20029;-74
2021/03/09 04:42:43;;;;;;;19.35;13.15;;;3.10;73.00;;;;;;5036421;28;20029;-74
2021/03/09 04:45:10;;;;;;;18.63;12.18;;;3.00;73.40;;;;;;5036449;28;20064;-74
2021/03/09 04:47:37;;;;;;;22.05;12.77;;;2.90;73.60;;;;;;5036796;28;20084;-73
2021/03/09 04:50:05;;;;;;;19.55;12.90;;;2.80;73.00;;;;;;5036247;28;20072;-73
2021/03/09 04:52:31;;;;;;;18.70;11.93;;;2.80;73.30;;;;;;5038855;28;20421;-74
2021/03/09 04:54:57;;;;;;;17.45;11.32;;;2.80;73.10;;;;;;5040130;28;20032;-74
2021/03/09 04:57:39;;;;;;;18.15;11.57;;;2.80;73.40;;;;;;5039172;28;20083;-74
2021/03/09 05:00:11;;;;;;;19.58;11.75;;;2.80;73.20;;;;;;5039139;28;20365;-74
2021/03/09 05:02:37;;;;;;;21.60;12.68;;;2.90;73.20;;;;;;5040023;28;20049;-74
2021/03/09 05:05:03;;;;;;;21.45;12.68;;;3.00;72.90;;;;;;5039978;28;20049;-74
2021/03/09 05:07:29;;;;;;;22.13;13.27;;;3.10;72.40;;;;;;5040455;28;20021;-74
2021/03/09 05:09:55;;;;;;;21.77;13.98;;;3.20;72.40;;;;;;5039978;28;20036;-74
2021/03/09 05:12:20;;;;;;;20.33;12.73;;;3.20;72.40;;;;;;5039950;28;20030;-74
2021/03/09 05:14:46;;;;;;;20.90;13.20;;;3.30;71.70;;;;;;5040049;28;20030;-74
2021/03/09 05:17:12;;;;;;;19.55;11.27;;;3.40;71.50;;;;;;5038801;28;20034;-74
2021/03/09 05:19:38;;;;;;;19.23;12.27;;;3.40;71.40;;;;;;5039598;28;20061;-74
2021/03/09 05:22:04;;;;;;;17.95;12.60;;;3.40;71.50;;;;;;5039773;28;20061;-73
2021/03/09 05:24:30;;;;;;;17.17;12.45;;;3.30;71.80;;;;;;5039629;28;20364;-74
2021/03/09 05:26:55;;;;;;;22.08;12.63;;;3.20;71.80;;;;;;5038595;28;20029;-74
2021/03/09 05:29:21;;;;;;;17.80;12.32;;;3.10;71.90;;;;;;5039571;28;20079;-73
2021/03/09 05:31:47;;;;;;;20.83;11.50;;;3.10;72.00;;;;;;5039460;28;20410;-74
2021/03/09 05:34:12;;;;;;;18.85;12.45;;;3.10;72.00;;;;;;5038374;28;20030;-73
2021/03/09 05:36:38;;;;;;;18.33;12.40;;;3.10;72.50;;;;;;5039493;28;20022;-73
2021/03/09 05:39:04;;;;;;;19.90;13.23;;;3.00;72.70;;;;;;5039390;28;20028;-73
2021/03/09 05:41:30;;;;;;;22.23;13.25;;;3.00;73.20;;;;;;5039863;28;20363;-73
2021/03/09 05:43:57;;;;;;;24.52;14.52;;;3.00;72.90;;;;;;5038242;28;20112;-74
2021/03/09 05:46:22;;;;;;;19.23;12.90;;;3.00;72.60;;;;;;5039630;28;20151;-73
2021/03/09 05:48:48;;;;;;;24.65;13.05;;;3.00;72.80;;;;;;5039214;28;20425;-74
2021/03/09 05:51:14;;;;;;;18.27;12.48;;;3.10;72.90;;;;;;5039084;28;20028;-74
2021/03/09 05:53:40;;;;;;;20.75;13.80;;;3.10;73.10;;;;;;5039069;28;20068;-73
2021/03/09 05:56:06;;;;;;;19.65;12.65;;;3.00;72.90;;;;;;5039118;28;20052;-73
2021/03/09 05:58:33;;;;;;;18.13;11.63;;;3.00;72.40;;;;;;5039152;28;20022;-74
2021/03/09 06:00:59;;;;;;;20.02;12.73;;;3.00;72.30;;;;;;5039033;28;20434;-73
2021/03/09 06:03:27;;;;;;;18.20;13.25;;;3.00;72.60;;;;;;5038421;28;20432;-74
2021/03/09 06:05:53;;;;;;;21.88;12.23;;;3.00;73.20;;;;;;5038973;28;20030;-73
2021/03/09 06:08:19;;;;;;;22.88;13.30;;;3.00;73.20;;;;;;5038911;28;20026;-73
2021/03/09 06:10:45;;;;;;;17.63;12.23;;;3.00;73.30;;;;;;5039330;28;20110;-74
2021/03/09 06:13:34;;;;;;;18.85;12.13;;;3.00;74.40;;;;;;5038710;28;20048;-73
2021/03/09 06:16:00;;;;;;;19.42;12.93;;;2.90;75.20;;;;;;5038708;28;20025;-73
2021/03/09 06:18:26;;;;;;;19.33;12.65;;;2.90;75.20;;;;;;5038650;28;20049;-74
2021/03/09 06:21:11;;;;;;;20.63;12.55;;;2.90;75.30;;;;;;5038507;28;20130;-74
2021/03/09 06:23:38;;;;;;;20.75;12.88;;;3.00;75.20;;;;;;5038747;28;20040;-73
2021/03/09 06:26:34;;;;;;;19.52;12.98;;;3.20;75.10;;;;;;5038629;28;20100;-74
2021/03/09 06:29:16;;;;;;;22.63;13.00;;;3.30;73.30;;;;;;5037442;28;20440;-73
2021/03/09 06:31:48;;;;;;;21.40;13.25;;;3.50;71.60;;;;;;5038417;28;20413;-74
2021/03/09 06:34:27;;;;;;;19.15;12.48;;;3.70;72.20;;;;;;5038595;28;20029;-73
2021/03/09 06:37:11;;;;;;;20.88;13.98;;;3.80;72.30;;;;;;5038447;28;20057;-73
2021/03/09 06:39:45;;;;;;;21.35;13.20;;;3.90;71.80;;;;;;5038331;28;20021;-74
2021/03/09 06:42:13;;;;;;;20.08;13.18;;;4.00;71.60;;;;;;5038390;28;20029;-74
2021/03/09 06:44:39;;;;;;;19.98;12.18;;;4.10;70.10;;;;;;5038278;28;20394;-74
2021/03/09 06:47:06;;;;;;;19.30;12.75;;;4.20;70.30;;;;;;5038220;28;20414;-73
2021/03/09 06:49:48;;;;;;;20.92;13.82;;;4.30;69.60;;;;;;5038112;28;20057;-73
2021/03/09 06:52:14;;;;;;;21.42;13.32;;;4.40;69.10;;;;;;5038289;28;20112;-74
2021/03/09 06:54:48;;;;;;;20.60;13.90;;;4.40;70.30;;;;;;5037924;28;20026;-73
2021/03/09 06:57:14;;;;;;;18.52;13.38;;;4.50;69.90;;;;;;5038094;28;20044;-73
2021/03/09 06:59:47;;;;;;;20.00;13.35;;;4.50;68.40;;;;;;5037929;28;20420;-73
2021/03/09 07:02:15;;;;;;;16.60;12.50;;;4.50;68.50;;;;;;5038131;28;20440;-74
2021/03/09 07:04:44;;;;;;;15.82;12.43;;;4.60;68.90;;;;;;5037751;28;20113;-74
2021/03/09 07:07:14;;;;;;;20.25;13.48;;;4.70;68.40;;;;;;5037733;28;20535;-74
2021/03/09 07:09:51;;;;;;;22.77;12.43;;;4.70;68.50;;;;;;5037823;28;20067;-73
2021/03/09 07:12:18;;;;;;;18.52;12.70;;;4.80;68.10;;;;;;5037777;28;20036;-73
2021/03/09 07:14:45;;;;;;;18.08;12.82;;;4.90;69.50;;;;;;5036865;28;20044;-73
2021/03/09 07:17:13;;;;;;;19.83;13.63;;;5.00;68.30;;;;;;5037831;28;20086;-73
2021/03/09 07:19:44;;;;;;;18.42;12.18;;;5.10;67.90;;;;;;5037815;28;20025;-74
2021/03/09 07:22:12;;;;;;;20.40;13.15;;;5.10;68.10;;;;;;5037554;28;20037;-73
2021/03/09 07:25:05;;;;;;;17.55;12.07;;;5.10;67.90;;;;;;5037385;28;20360;-73
2021/03/09 07:28:00;;;;;;;18.50;12.63;;;5.20;68.90;;;;;;5037655;28;20026;-73
2021/03/09 07:30:28;;;;;;;15.95;11.77;;;5.30;67.60;;;;;;5037421;28;20026;-73
2021/03/09 07:32:56;;;;;;;18.13;12.07;;;5.40;67.20;;;;;;5037440;28;20017;-73
2021/03/09 07:35:30;;;;;;;21.08;12.25;;;5.40;66.30;;;;;;5037531;28;20022;-73
2021/03/09 07:37:57;;;;;;;19.65;13.48;;;5.50;67.60;;;;;;5037287;28;20071;-74
2021/03/09 07:40:28;;;;;;;22.75;13.05;;;5.50;67.70;;;;;;5037102;28;20033;-73
2021/03/09 07:42:55;;;;;;;16.98;11.95;;;5.60;66.40;;;;;;5037348;28;20421;-73
2021/03/09 07:45:24;;;;;;;17.95;11.93;;;5.80;67.70;;;;;;5037464;28;20026;-73
2021/03/09 07:47:52;;;;;;;15.45;12.10;;;5.90;66.40;;;;;;5037030;28;20033;-73
2021/03/09 07:50:19;;;;;;;19.52;11.90;;;6.10;67.80;;;;;;5037183;28;20038;-73
2021/03/09 07:53:03;;;;;;;18.55;12.57;;;6.10;66.00;;;;;;5036918;28;20022;-73
2021/03/09 07:55:30;;;;;;;19.90;13.85;;;6.30;66.70;;;;;;5036868;28;20437;-73
2021/03/09 07:58:27;;;;;;;15.98;11.85;;;6.40;67.50;;;;;;5037348;28;20337;-73
2021/03/09 08:01:05;;;;;;;20.67;11.73;;;6.50;67.10;;;;;;5035864;28;20045;-73
2021/03/09 08:03:37;;;;;;;19.42;12.20;;;6.60;66.30;;;;;;5036904;28;20065;-74
2021/03/09 08:06:06;;;;;;;16.80;12.63;;;6.70;65.70;;;;;;5037001;28;20034;-74
2021/03/09 08:08:49;;;;;;;15.75;11.98;;;6.70;65.10;;;;;;5036895;28;20152;-73
2021/03/09 08:11:24;;;;;;;17.77;12.50;;;6.80;65.50;;;;;;5036949;28;20025;-73
2021/03/09 08:14:03;;;;;;;17.65;12.05;;;6.90;65.30;;;;;;5036690;28;20437;-74
2021/03/09 08:16:36;;;;;;;20.70;13.30;;;6.90;64.00;;;;;;5036744;28;20112;-73
2021/03/09 08:19:06;;;;;;;17.45;11.45;;;7.00;64.50;;;;;;5036923;28;20029;-74
2021/03/09 08:21:52;;;;;;;14.32;11.18;;;7.10;64.60;;;;;;5036523;28;20053;-74
2021/03/09 08:24:45;;;;;;;16.23;10.68;;;7.50;62.80;;;;;;5036721;28;20025;-73
2021/03/09 08:27:31;;;;;;;17.95;11.50;;;8.30;59.90;;;;;;5040702;28;20060;-74
2021/03/09 08:30:28;;;;;;;17.63;11.45;;;9.10;58.00;;;;;;5041104;28;20372;-74
2021/03/09 08:33:14;;;;;;;14.05;9.80;;;9.90;55.80;;;;;;5042220;28;20038;-74
2021/03/09 08:35:39;;;;;;;19.58;9.30;;;10.60;53.00;;;;;;5040524;28;20075;-74
2021/03/09 08:38:13;;;;;;;17.48;10.43;;;11.10;52.80;;;;;;5040615;28;20057;-72
2021/03/09 08:41:12;;;;;;;12.50;9.30;;;11.40;52.10;;;;;;5040548;28;20414;-74
2021/03/09 08:43:39;;;;;;;14.43;10.27;;;11.60;52.50;;;;;;5039500;28;20033;-72
2021/03/09 08:46:06;;;;;;;15.10;9.48;;;11.70;52.00;;;;;;5040460;28;20038;-74
2021/03/09 08:48:42;;;;;;;16.55;10.85;;;11.60;52.10;;;;;;5040534;28;20030;-73
2021/03/09 08:51:07;;;;;;;12.77;10.05;;;12.00;51.10;;;;;;5040246;28;20037;-72
2021/03/09 08:53:34;;;;;;;13.27;9.98;;;12.50;49.60;;;;;;5039185;28;20022;-74
2021/03/09 08:56:03;;;;;;;15.27;10.55;;;13.00;49.50;;;;;;5040612;28;20025;-73
2021/03/09 08:58:29;;;;;;;13.02;9.68;;;13.10;47.60;;;;;;5040130;28;20021;-72
2021/03/09 09:00:56;;;;;;;13.27;10.00;;;13.00;49.90;;;;;;5040080;28;20414;-72
2021/03/09 09:03:35;;;;;;;13.20;10.07;;;12.90;48.00;;;;;;5040036;28;20049;-73
2021/03/09 09:06:03;;;;;;;14.65;9.80;;;12.90;49.80;;;;;;5040283;28;20448;-73
2021/03/09 09:08:29;;;;;;;17.48;10.55;;;13.20;47.80;;;;;;5039992;28;20018;-74
2021/03/09 09:10:56;;;;;;;13.63;9.65;;;13.50;47.30;;;;;;5039932;28;20029;-74
2021/03/09 09:13:38;;;;;;;12.10;9.80;;;13.70;46.50;;;;;;5039826;28;20405;-72
2021/03/09 09:16:17;;;;;;;13.50;10.38;;;13.80;48.50;;;;;;5039783;28;20034;-72
2021/03/09 09:18:43;;;;;;;14.15;9.73;;;13.80;46.80;;;;;;5038828;28;20030;-74
2021/03/09 09:21:10;;;;;;;12.73;10.15;;;13.70;46.30;;;;;;5039700;28;20054;-74
2021/03/09 09:23:37;;;;;;;15.38;9.40;;;13.70;46.30;;;;;;5039684;28;20101;-73
2021/03/09 09:26:03;;;;;;;14.15;10.35;;;14.20;47.10;;;;;;5040040;28;20030;-72
2021/03/09 09:28:34;;;;;;;11.18;9.52;;;14.60;45.20;;;;;;5039647;28;20414;-72
2021/03/09 09:31:01;;;;;;;17.90;10.40;;;14.40;44.70;;;;;;5039525;28;20402;-72
2021/03/09 09:33:32;;;;;;;11.07;9.75;;;14.50;45.40;;;;;;5038414;28;20357;-72
2021/03/09 09:35:58;;;;;;;13.90;10.80;;;14.40;45.30;;;;;;5039553;28;20033;-72
2021/03/09 09:38:24;;;;;;;11.15;9.85;;;14.40;47.40;;;;;;5037504;28;20017;-72
2021/03/09 09:40:54;;;;;;;13.07;10.30;;;14.60;45.80;;;;;;5038378;28;20044;-72
2021/03/09 09:43:23;;;;;;;11.70;10.13;;;14.60;46.80;;;;;;5039298;28;20372;-72
2021/03/09 09:45:56;;;;;;;11.32;9.63;;;14.80;47.50;;;;;;5039722;28;20029;-72
2021/03/09 09:48:35;;;;;;;12.90;10.15;;;15.10;46.10;;;;;;5039212;28;20044;-72
2021/03/09 09:51:04;;;;;;;17.17;10.40;;;15.10;45.00;;;;;;5039123;28;20033;-72
2021/03/09 09:53:32;;;;;;;13.27;10.68;;;15.00;44.80;;;;;;5039092;28;20022;-72
2021/03/09 09:56:00;;;;;;;13.98;9.50;;;14.50;44.70;;;;;;5039453;28;20110;-74
2021/03/09 09:58:40;;;;;;;13.10;10.75;;;14.30;46.70;;;;;;5039075;28;20044;-72
2021/03/09 10:01:06;;;;;;;13.32;10.00;;;13.70;46.30;;;;;;5039058;28;20025;-73
2021/03/09 10:03:32;;;;;;;12.80;10.13;;;13.70;46.70;;;;;;5038910;28;20426;-72
2021/03/09 10:06:15;;;;;;;13.57;10.73;;;13.50;47.40;;;;;;5039166;28;20057;-72
2021/03/09 10:08:41;;;;;;;13.73;10.45;;;13.20;48.10;;;;;;5039012;28;20029;-74
2021/03/09 10:11:09;;;;;;;13.82;11.30;;;12.60;50.60;;;;;;5038183;28;20038;-73
2021/03/09 10:13:35;;;;;;;13.27;11.10;;;12.20;49.90;;;;;;5049452;28;20025;-72
2021/03/09 10:16:00;;;;;;;13.93;10.73;;;12.20;50.00;;;;;;5040532;28;20120;-73
2021/03/09 10:18:32;;;;;;;15.20;11.73;;;12.50;49.40;;;;;;5038816;28;20109;-72
2021/03/09 10:21:11;;;;;;;14.85;10.23;;;12.70;49.90;;;;;;5038465;28;20132;-73
2021/03/09 10:23:52;;;;;;;13.55;10.32;;;13.00;49.10;;;;;;5038634;28;20096;-74
2021/03/09 10:26:29;;;;;;;16.30;10.57;;;13.40;47.90;;;;;;5037552;28;20040;-72
2021/03/09 10:29:16;;;;;;;13.45;11.20;;;13.90;48.20;;;;;;5038601;28;20030;-74
2021/03/09 10:31:49;;;;;;;16.42;11.73;;;13.90;48.10;;;;;;5038380;28;20056;-73
2021/03/09 10:34:33;;;;;;;15.05;11.20;;;14.40;47.20;;;;;;5038422;28;20017;-74
2021/03/09 10:37:01;;;;;;;14.98;11.63;;;14.30;45.90;;;;;;5038545;28;20083;-74
2021/03/09 10:39:28;;;;;;;12.80;10.93;;;14.00;46.70;;;;;;5038318;28;20330;-74
2021/03/09 10:41:54;;;;;;;15.73;10.93;;;14.40;45.70;;;;;;5038478;28;20413;-74
2021/03/09 10:44:35;;;;;;;15.70;12.32;;;15.20;46.00;;;;;;5038395;28;20053;-72
2021/03/09 10:47:04;;;;;;;13.98;10.98;;;15.70;45.80;;;;;;5038461;28;20049;-72
2021/03/09 10:49:31;;;;;;;13.77;11.55;;;15.80;46.60;;;;;;5038128;28;20294;-74
2021/03/09 10:51:57;;;;;;;14.60;11.10;;;15.60;45.10;;;;;;5037992;28;20103;-74
2021/03/09 10:54:23;;;;;;;14.60;11.38;;;15.40;43.60;;;;;;5036976;28;20022;-72
2021/03/09 10:56:49;;;;;;;12.93;11.52;;;15.50;47.30;;;;;;5036949;28;20026;-72
2021/03/09 10:59:14;;;;;;;14.32;11.70;;;15.80;45.90;;;;;;5038006;28;20017;-72
2021/03/09 11:01:40;;;;;;;17.33;11.40;;;16.10;44.80;;;;;;5037886;28;20104;-72
2021/03/09 11:04:07;;;;;;;14.32;10.77;;;15.90;41.90;;;;;;5037790;28;20552;-72
2021/03/09 11:06:32;;;;;;;16.00;11.48;;;16.10;44.80;;;;;;5037810;28;20121;-72
2021/03/09 11:08:58;;;;;;;14.88;12.43;;;16.50;44.30;;;;;;5037986;28;20056;-72
2021/03/09 11:11:25;;;;;;;12.68;11.32;;;16.50;42.90;;;;;;5037937;28;20082;-72
2021/03/09 11:13:51;;;;;;;12.65;11.35;;;16.20;45.30;;;;;;5037857;28;20017;-72
2021/03/09 11:16:17;;;;;;;16.45;11.60;;;16.30;42.90;;;;;;5038155;28;20061;-72
2021/03/09 11:18:43;;;;;;;13.80;11.88;;;16.40;44.50;;;;;;5037582;28;20137;-73
2021/03/09 11:21:09;;;;;;;16.30;11.60;;;16.20;45.40;;;;;;5037323;28;20435;-74
2021/03/09 11:23:36;;;;;;;14.10;10.60;;;16.10;45.00;;;;;;5037696;28;20317;-74
2021/03/09 11:26:02;;;;;;;17.75;12.85;;;16.10;46.50;;;;;;5037807;28;20325;-74
2021/03/09 11:28:28;;;;;;;17.67;12.10;;;15.90;43.80;;;;;;5037399;28;20116;-74
2021/03/09 11:30:54;;;;;;;13.57;11.77;;;15.80;44.80;;;;;;5037280;28;20065;-74
2021/03/09 11:33:20;;;;;;;14.77;12.05;;;15.80;45.10;;;;;;5037227;28;20071;-74
2021/03/09 11:35:46;;;;;;;13.82;12.20;;;16.00;45.70;;;;;;5037544;28;20364;-74
2021/03/09 11:38:12;;;;;;;14.13;12.18;;;16.00;45.30;;;;;;5037260;28;20021;-74
2021/03/09 11:40:37;;;;;;;17.85;12.82;;;16.00;46.20;;;;;;5037214;28;20025;-74
2021/03/09 11:43:03;;;;;;;13.88;11.50;;;16.00;43.90;;;;;;5037042;28;20043;-74
2021/03/09 11:45:29;;;;;;;16.25;12.77;;;15.90;44.00;;;;;;5037547;28;20075;-74
2021/03/09 11:47:54;;;;;;;14.32;12.23;;;15.80;46.10;;;;;;5037113;28;20112;-74
2021/03/09 11:50:20;;;;;;;15.00;12.75;;;15.80;44.40;;;;;;5037510;28;20116;-74
2021/03/09 11:52:46;;;;;;;14.07;11.88;;;15.80;45.10;;;;;;5036963;28;20056;-74
2021/03/09 11:55:12;;;;;;;18.77;13.43;;;15.30;45.70;;;;;;5036956;28;20051;-74
2021/03/09 11:57:38;;;;;;;16.13;12.88;;;15.00;47.50;;;;;;5037084;28;20021;-74
2021/03/09 12:00:07;;;;;;;16.48;12.95;;;15.20;48.30;;;;;;5036486;28;20406;-74
2021/03/09 12:02:33;;;;;;;13.80;12.10;;;15.40;48.90;;;;;;5036864;28;20026;-74
2021/03/09 12:04:58;;;;;;;16.05;13.32;;;15.60;47.70;;;;;;5037063;28;20083;-74
2021/03/09 12:07:24;;;;;;;18.55;12.88;;;15.50;45.50;;;;;;5036806;28;20413;-74
2021/03/09 12:09:50;;;;;;;14.60;12.77;;;15.40;45.10;;;;;;5036800;28;20030;-74
2021/03/09 12:12:15;;;;;;;15.40;12.50;;;15.10;46.90;;;;;;5036818;28;20037;-74
2021/03/09 12:14:41;;;;;;;15.52;13.23;;;15.20;46.10;;;;;;5036917;28;20031;-74
2021/03/09 12:17:07;;;;;;;14.30;12.80;;;15.20;45.80;;;;;;5036736;28;20030;-74
2021/03/09 12:19:33;;;;;;;17.48;13.07;;;15.00;46.90;;;;;;5036728;28;20363;-74
2021/03/09 12:21:58;;;;;;;20.42;12.65;;;15.00;48.80;;;;;;5036453;28;20460;-74
2021/03/09 12:24:24;;;;;;;17.95;13.38;;;14.80;48.40;;;;;;5036575;28;20418;-74
2021/03/09 12:26:50;;;;;;;18.75;12.50;;;14.50;47.60;;;;;;5037079;28;20033;-74
2021/03/09 12:29:16;;;;;;;13.27;11.88;;;14.40;49.40;;;;;;5036745;28;20057;-74
2021/03/09 12:31:41;;;;;;;14.63;12.43;;;14.40;49.00;;;;;;5036506;28;20068;-74
2021/03/09 12:34:08;;;;;;;18.17;13.65;;;14.40;48.10;;;;;;5036724;28;20309;-74
2021/03/09 12:36:34;;;;;;;16.08;13.45;;;14.10;48.20;;;;;;5036825;28;20021;-73
2021/03/09 12:38:59;;;;;;;16.20;13.40;;;13.90;49.50;;;;;;5036484;28;20032;-74
2021/03/09 12:41:26;;;;;;;27.02;14.48;;;13.50;49.90;;;;;;5036497;28;20029;-73
2021/03/09 12:43:51;;;;;;;20.58;12.95;;;13.50;49.90;;;;;;5036324;28;20421;-74
2021/03/09 12:46:17;;;;;;;17.50;14.10;;;13.30;50.70;;;;;;5036956;28;20032;-74